Time;durP1;ratioP1;P1;durP2;ratioP2;P2;SDS_P1;SDS_P2;PMS_P1;PMS_P2;Temp;Humidity;BMP_temperature;BMP_pressure;BME280_temperature;BME280_humidity;BME280_pressure;Samples;Min_cycle;Max_cycle;Signal;HPM_P1;HPM_P2
2022/06/28 00:00:34;;;;;;;7.37;6.63;;;16.40;99.90;;;;;;5013381;28;20460;-68
2022/06/28 00:03:42;;;;;;;7.00;6.40;;;16.40;99.90;;;;;;5009870;28;20546;-68
2022/06/28 00:06:39;;;;;;;7.57;6.87;;;16.40;99.90;;;;;;4999676;28;20631;-68
2022/06/28 00:09:39;;;;;;;6.50;6.00;;;16.40;99.90;;;;;;5006107;28;20492;-67
2022/06/28 00:12:28;;;;;;;8.00;7.30;;;16.40;99.90;;;;;;5007907;28;20463;-67
2022/06/28 00:22:33;;;;;;;8.77;7.90;;;16.40;99.90;;;;;;5012885;28;20487;-67
2022/06/28 00:25:41;;;;;;;8.40;7.70;;;16.40;99.90;;;;;;5012433;28;20493;-67
2022/06/28 00:28:43;;;;;;;8.00;7.33;;;16.50;99.90;;;;;;5015226;28;21302;-67
2022/06/28 00:32:00;;;;;;;8.80;8.00;;;16.40;99.90;;;;;;5016422;28;20779;-67
2022/06/28 00:34:58;;;;;;;9.33;8.53;;;16.40;99.90;;;;;;5013561;28;20670;-67
2022/06/28 00:37:56;;;;;;;9.77;8.87;;;16.40;99.90;;;;;;5019186;28;20636;-67
2022/06/28 00:44:22;;;;;;;10.63;9.63;;;16.30;99.90;;;;;;5013722;28;20579;-67
2022/06/28 00:47:43;;;;;;;13.80;11.43;;;16.30;99.90;;;;;;5025689;28;20550;-67
2022/06/28 00:50:43;;;;;;;11.87;10.27;;;16.40;99.90;;;;;;5023671;28;20547;-67
2022/06/28 00:53:35;;;;;;;10.87;9.87;;;16.40;99.90;;;;;;5018983;28;20471;-67
2022/06/28 00:56:39;;;;;;;11.77;10.77;;;16.30;99.90;;;;;;5016693;28;20474;-67
2022/06/28 01:00:02;;;;;;;11.80;10.60;;;16.40;99.90;;;;;;5019939;28;21241;-67
2022/06/28 01:03:27;;;;;;;11.40;10.30;;;16.40;99.90;;;;;;5021120;28;20478;-67
2022/06/28 01:06:40;;;;;;;12.33;11.13;;;16.40;99.90;;;;;;5014189;28;20484;-67
2022/06/28 01:09:56;;;;;;;13.13;11.93;;;16.40;99.90;;;;;;5018447;28;20618;-67
2022/06/28 01:13:13;;;;;;;12.30;11.27;;;16.40;99.90;;;;;;5016329;28;20534;-67
2022/06/28 01:16:22;;;;;;;11.67;10.57;;;16.40;99.90;;;;;;5017837;28;20561;-67
2022/06/28 01:19:29;;;;;;;13.20;11.47;;;16.40;99.90;;;;;;5015662;28;20530;-67
2022/06/28 01:22:33;;;;;;;11.80;10.63;;;16.30;99.90;;;;;;5018175;28;20494;-67
2022/06/28 01:25:55;;;;;;;13.40;10.80;;;16.30;99.90;;;;;;5016433;28;20618;-67
2022/06/28 01:28:56;;;;;;;11.60;10.50;;;16.30;99.90;;;;;;5017437;28;20964;-67
2022/06/28 01:32:01;;;;;;;10.83;9.93;;;16.30;99.90;;;;;;5020732;28;20499;-67
2022/06/28 01:35:11;;;;;;;12.30;11.10;;;16.20;99.90;;;;;;5019770;28;20479;-67
2022/06/28 01:41:37;;;;;;;11.13;10.10;;;16.20;99.90;;;;;;5015555;28;20550;-67
2022/06/28 01:44:36;;;;;;;10.87;9.87;;;16.20;99.90;;;;;;5012482;28;20486;-67
2022/06/28 01:50:54;;;;;;;10.00;9.07;;;16.20;99.90;;;;;;5016550;28;20550;-67
2022/06/28 01:53:57;;;;;;;12.27;10.40;;;16.20;99.90;;;;;;5017356;28;20614;-67
2022/06/28 01:56:52;;;;;;;11.97;10.13;;;16.10;99.90;;;;;;5018585;28;20487;-68
2022/06/28 02:00:11;;;;;;;12.80;11.23;;;16.20;99.90;;;;;;5016670;28;20468;-68
2022/06/28 02:03:25;;;;;;;12.00;11.00;;;16.10;99.90;;;;;;5019181;28;20467;-67
2022/06/28 02:06:39;;;;;;;13.00;11.70;;;16.10;99.90;;;;;;5019135;28;20487;-67
2022/06/28 02:09:53;;;;;;;11.87;10.77;;;16.10;99.90;;;;;;5030398;28;20542;-67
2022/06/28 02:12:53;;;;;;;13.90;12.60;;;16.00;99.90;;;;;;5031894;28;20451;-67
2022/06/28 02:15:59;;;;;;;14.97;12.77;;;16.00;99.90;;;;;;5030729;28;20498;-67
2022/06/28 02:19:22;;;;;;;14.10;12.70;;;16.00;99.90;;;;;;5017289;28;20557;-67
2022/06/28 02:22:27;;;;;;;14.53;13.13;;;16.00;99.90;;;;;;5020436;28;20452;-67
2022/06/28 02:25:54;;;;;;;15.63;14.13;;;15.90;99.90;;;;;;5016806;28;20486;-67
2022/06/28 02:28:59;;;;;;;15.20;13.67;;;16.00;99.90;;;;;;5016181;28;20542;-67
2022/06/28 02:31:55;;;;;;;15.77;13.27;;;15.90;99.90;;;;;;5018655;28;20716;-67
2022/06/28 02:41:12;;;;;;;19.20;15.53;;;16.00;99.90;;;;;;5015741;28;20947;-67
2022/06/28 02:44:23;;;;;;;18.27;16.40;;;16.00;99.90;;;;;;5014221;28;20545;-67
2022/06/28 02:47:37;;;;;;;19.77;15.67;;;15.90;99.90;;;;;;5016012;28;20972;-67
2022/06/28 02:50:31;;;;;;;17.03;15.40;;;15.90;99.90;;;;;;5020695;28;20835;-67
2022/06/28 02:54:10;;;;;;;;;;;;;;;;;;;;;
2022/06/28 02:57:37;;;;;;;18.20;15.23;;;15.90;99.90;;;;;;5023040;28;20536;-67
2022/06/28 03:00:50;;;;;;;17.23;15.47;;;15.90;99.90;;;;;;5042214;28;20544;-67
2022/06/28 03:03:43;;;;;;;16.47;14.53;;;15.90;99.90;;;;;;5039747;28;20481;-67
2022/06/28 03:06:47;;;;;;;16.20;14.47;;;15.80;99.90;;;;;;5027419;28;20478;-67
2022/06/28 03:09:57;;;;;;;;;;;;;;;;;;;;;
2022/06/28 03:12:53;;;;;;;16.53;14.97;;;15.80;99.90;;;;;;5011286;28;20451;-69
2022/06/28 03:16:08;;;;;;;16.53;14.77;;;15.80;99.90;;;;;;5014741;28;20495;-67
2022/06/28 03:19:06;;;;;;;16.13;14.57;;;15.70;99.90;;;;;;5013203;28;20459;-67
2022/06/28 03:22:11;;;;;;;16.03;14.33;;;15.70;99.90;;;;;;5017635;28;20841;-67
2022/06/28 03:25:20;;;;;;;15.83;14.33;;;15.70;99.90;;;;;;5014233;28;20511;-67
2022/06/28 03:31:52;;;;;;;16.50;14.80;;;15.70;99.90;;;;;;5018322;28;20451;-67
2022/06/28 03:35:03;;;;;;;15.57;14.07;;;15.70;99.90;;;;;;5012228;28;20483;-67
2022/06/28 03:38:13;;;;;;;16.07;14.40;;;15.60;99.90;;;;;;5009674;28;20982;-67
2022/06/28 03:41:29;;;;;;;14.93;13.50;;;15.70;99.90;;;;;;5014882;28;20479;-67
2022/06/28 03:44:32;;;;;;;16.00;14.50;;;15.70;99.90;;;;;;5014645;28;20570;-67
2022/06/28 03:47:38;;;;;;;15.80;14.20;;;15.70;99.90;;;;;;5019871;28;21069;-67
2022/06/28 03:50:42;;;;;;;15.17;13.80;;;15.70;99.90;;;;;;5019735;28;20561;-67
2022/06/28 03:54:03;;;;;;;16.50;14.30;;;15.70;99.90;;;;;;5021819;28;20488;-67
2022/06/28 03:57:07;;;;;;;13.87;12.57;;;15.70;99.90;;;;;;5015599;28;20909;-67
2022/06/28 04:00:10;;;;;;;13.50;12.17;;;15.70;99.90;;;;;;5019803;28;20460;-67
2022/06/28 04:03:23;;;;;;;14.10;12.70;;;15.70;99.90;;;;;;5014957;28;20927;-67
2022/06/28 04:06:23;;;;;;;12.40;11.20;;;15.70;99.90;;;;;;5018013;28;20852;-67
2022/06/28 04:12:35;;;;;;;12.80;11.60;;;15.70;99.90;;;;;;5011778;28;20928;-67
2022/06/28 04:15:55;;;;;;;13.13;11.80;;;15.80;99.90;;;;;;5013635;28;20531;-67
2022/06/28 04:19:19;;;;;;;12.27;11.00;;;15.80;99.90;;;;;;5011585;28;20545;-67
2022/06/28 04:22:18;;;;;;;12.37;11.17;;;15.80;99.90;;;;;;5018654;28;20665;-67
2022/06/28 04:25:26;;;;;;;13.47;12.20;;;15.80;99.90;;;;;;5018113;28;21044;-67
2022/06/28 04:28:38;;;;;;;13.33;12.07;;;15.90;99.90;;;;;;5012936;28;20481;-67
2022/06/28 04:31:54;;;;;;;13.20;11.90;;;15.90;99.90;;;;;;5013052;28;20462;-67
2022/06/28 04:34:51;;;;;;;13.70;12.40;;;16.00;99.90;;;;;;5013259;28;20487;-67
2022/06/28 04:37:52;;;;;;;14.10;12.73;;;16.00;99.90;;;;;;5015841;28;20460;-70
2022/06/28 04:41:14;;;;;;;17.73;13.57;;;16.00;99.90;;;;;;5009491;28;20541;-67
2022/06/28 04:44:35;;;;;;;15.10;13.70;;;16.10;99.90;;;;;;5011364;28;20820;-67
2022/06/28 04:47:34;;;;;;;15.67;14.23;;;16.10;99.90;;;;;;5011063;28;20864;-68
2022/06/28 04:51:10;;;;;;;15.30;13.90;;;16.20;99.90;;;;;;5015985;28;21082;-68
2022/06/28 04:54:28;;;;;;;15.87;14.27;;;16.20;99.90;;;;;;5013631;28;20504;-68
2022/06/28 04:57:27;;;;;;;15.43;14.00;;;16.30;99.90;;;;;;5007083;28;20542;-68
2022/06/28 05:03:51;;;;;;;15.47;14.07;;;16.30;99.90;;;;;;5004299;28;20977;-67
2022/06/28 05:06:48;;;;;;;14.13;12.63;;;16.40;99.90;;;;;;5004566;28;20490;-67
2022/06/28 05:09:45;;;;;;;16.53;15.03;;;16.50;99.90;;;;;;5019760;28;20589;-67
2022/06/28 05:12:52;;;;;;;18.60;16.80;;;16.50;99.90;;;;;;5010211;28;20455;-66
2022/06/28 05:15:47;;;;;;;17.40;15.80;;;16.60;99.90;;;;;;5009641;28;21398;-67
2022/06/28 05:19:06;;;;;;;18.53;16.73;;;16.60;99.90;;;;;;5013713;28;20557;-67
2022/06/28 05:22:14;;;;;;;19.13;17.33;;;16.60;99.90;;;;;;5010720;28;20576;-67
2022/06/28 05:25:11;;;;;;;20.00;18.10;;;16.60;99.90;;;;;;5004232;28;21225;-67
2022/06/28 05:28:37;;;;;;;19.83;17.83;;;16.60;99.90;;;;;;5005849;28;20538;-69
2022/06/28 05:38:38;;;;;;;19.60;17.80;;;16.70;99.90;;;;;;5020083;28;20565;-69
2022/06/28 05:41:41;;;;;;;20.13;18.33;;;16.70;99.90;;;;;;5022494;28;20489;-69
2022/06/28 05:48:05;;;;;;;19.20;17.40;;;16.70;99.90;;;;;;5013574;28;20459;-67
2022/06/28 05:51:23;;;;;;;18.50;16.70;;;16.80;99.90;;;;;;5022642;28;20459;-67
2022/06/28 05:54:36;;;;;;;18.30;16.63;;;16.80;99.90;;;;;;5021627;28;20510;-67
2022/06/28 05:57:36;;;;;;;16.97;15.57;;;16.90;99.90;;;;;;5010584;28;20566;-67
2022/06/28 06:00:33;;;;;;;16.10;14.60;;;17.00;99.90;;;;;;5015033;28;21102;-67
2022/06/28 06:03:22;;;;;;;15.60;14.23;;;17.00;99.90;;;;;;5009001;28;20478;-67
2022/06/28 06:06:17;;;;;;;15.57;14.07;;;17.10;99.90;;;;;;5005248;28;20464;-66
2022/06/28 06:09:09;;;;;;;16.23;14.93;;;17.10;99.90;;;;;;5009709;28;20838;-66
2022/06/28 06:12:08;;;;;;;16.10;14.80;;;17.20;99.90;;;;;;5015739;28;20467;-67
2022/06/28 06:15:02;;;;;;;15.63;13.93;;;17.30;99.90;;;;;;5017017;28;20711;-67
2022/06/28 06:17:50;;;;;;;16.03;14.43;;;17.30;99.90;;;;;;5011510;28;20471;-67
2022/06/28 06:20:39;;;;;;;14.60;13.20;;;17.40;99.90;;;;;;5011666;28;20487;-67
2022/06/28 06:23:30;;;;;;;13.37;12.27;;;17.40;99.90;;;;;;5021966;28;20618;-67
2022/06/28 06:26:21;;;;;;;13.53;12.37;;;17.40;99.90;;;;;;5016810;28;20467;-67
2022/06/28 06:29:14;;;;;;;13.83;12.67;;;17.30;99.90;;;;;;5018620;28;20458;-67
2022/06/28 06:32:10;;;;;;;13.83;12.70;;;17.30;99.90;;;;;;5019623;28;20479;-67
2022/06/28 06:34:58;;;;;;;12.53;11.33;;;17.30;99.90;;;;;;5021899;28;20480;-67
2022/06/28 06:37:46;;;;;;;13.93;12.67;;;17.30;99.90;;;;;;5021026;28;20964;-67
2022/06/28 06:40:37;;;;;;;13.30;12.10;;;17.30;99.90;;;;;;5019692;28;20451;-68
2022/06/28 06:43:27;;;;;;;12.20;11.10;;;17.30;99.90;;;;;;5018280;28;20487;-68
2022/06/28 06:46:16;;;;;;;12.37;11.10;;;17.30;99.90;;;;;;5018461;28;20491;-67
2022/06/28 06:49:14;;;;;;;11.97;10.93;;;17.40;99.90;;;;;;5014058;28;20478;-68
2022/06/28 06:52:05;;;;;;;12.13;11.13;;;17.40;99.90;;;;;;5013232;28;20479;-70
2022/06/28 06:54:53;;;;;;;11.77;10.83;;;17.40;99.90;;;;;;5013027;28;20987;-69
2022/06/28 06:57:52;;;;;;;12.47;11.23;;;17.40;99.90;;;;;;5020289;28;20467;-68
2022/06/28 07:00:40;;;;;;;13.20;12.10;;;17.50;99.90;;;;;;5021521;28;20986;-68
2022/06/28 07:03:34;;;;;;;13.13;12.07;;;17.60;99.90;;;;;;5020472;28;20554;-69
2022/06/28 07:06:22;;;;;;;12.47;11.57;;;17.60;99.90;;;;;;5024207;28;20475;-69
2022/06/28 07:09:10;;;;;;;12.17;11.17;;;17.70;99.90;;;;;;5020042;28;20523;-69
2022/06/28 07:11:59;;;;;;;12.63;11.53;;;17.70;99.90;;;;;;5012582;28;21141;-67
2022/06/28 07:14:48;;;;;;;12.20;11.20;;;17.70;99.90;;;;;;5015751;28;21107;-67
2022/06/28 07:17:36;;;;;;;12.20;11.37;;;17.70;99.90;;;;;;5023783;28;20492;-67
2022/06/28 07:20:26;;;;;;;11.60;10.70;;;17.80;99.90;;;;;;5021641;28;20504;-67
2022/06/28 07:23:17;;;;;;;11.90;10.83;;;17.80;99.90;;;;;;5022417;28;20986;-67
2022/06/28 07:26:16;;;;;;;12.80;11.70;;;17.80;99.90;;;;;;5017353;28;20634;-67
2022/06/28 07:29:07;;;;;;;12.07;11.03;;;17.90;99.90;;;;;;5019439;28;20865;-67
2022/06/28 07:32:00;;;;;;;9.30;8.43;;;18.00;99.90;;;;;;5012567;28;20474;-68
2022/06/28 07:34:51;;;;;;;7.93;7.20;;;17.90;99.90;;;;;;5017626;28;20475;-68
2022/06/28 07:37:40;;;;;;;7.47;6.87;;;17.90;99.90;;;;;;5022308;28;20522;-68
2022/06/28 07:40:29;;;;;;;7.17;6.50;;;17.90;99.90;;;;;;5011963;28;20545;-74
2022/06/28 07:43:17;;;;;;;7.50;6.80;;;17.90;99.90;;;;;;5015326;28;20581;-68
2022/06/28 07:46:05;;;;;;;7.43;6.70;;;18.00;99.90;;;;;;5019025;28;20525;-68
2022/06/28 07:48:59;;;;;;;7.17;6.67;;;18.00;99.90;;;;;;5020906;28;21678;-68
2022/06/28 07:54:57;;;;;;;6.37;5.77;;;18.20;99.90;;;;;;5033305;28;21116;-68
2022/06/28 07:57:45;;;;;;;7.40;6.80;;;18.30;99.90;;;;;;5022251;28;20522;-68
2022/06/28 08:00:37;;;;;;;5.73;5.30;;;18.40;99.90;;;;;;5017533;28;20602;-68
2022/06/28 08:03:25;;;;;;;5.20;4.70;;;18.30;99.90;;;;;;5021603;28;20475;-68
2022/06/28 08:06:14;;;;;;;5.33;4.83;;;18.30;99.90;;;;;;5016501;28;21001;-68
2022/06/28 08:09:02;;;;;;;5.27;4.87;;;18.20;99.90;;;;;;5011631;28;20546;-68
2022/06/28 08:11:52;;;;;;;4.90;4.50;;;18.20;99.90;;;;;;5015014;28;20622;-68
2022/06/28 08:14:40;;;;;;;4.50;4.10;;;18.20;99.90;;;;;;5016361;28;20618;-67
2022/06/28 08:17:29;;;;;;;4.53;3.97;;;18.40;99.90;;;;;;5017976;28;20555;-68
2022/06/28 08:20:17;;;;;;;4.20;3.90;;;18.40;99.90;;;;;;5018302;28;20550;-67
2022/06/28 08:23:09;;;;;;;3.90;3.50;;;18.50;99.90;;;;;;5020859;28;20491;-68
2022/06/28 08:25:57;;;;;;;6.50;4.13;;;18.50;99.90;;;;;;5019842;28;20483;-68
2022/06/28 08:28:49;;;;;;;3.50;3.17;;;18.60;99.90;;;;;;5019037;28;20543;-68
2022/06/28 08:31:37;;;;;;;3.77;3.47;;;18.70;99.90;;;;;;5017779;28;20554;-68
2022/06/28 08:34:29;;;;;;;3.40;3.20;;;18.80;99.90;;;;;;5021378;28;20475;-69
2022/06/28 08:37:21;;;;;;;3.70;2.90;;;18.90;99.90;;;;;;5017959;28;20455;-68
2022/06/28 08:40:14;;;;;;;3.60;2.80;;;18.90;99.90;;;;;;5018837;28;20452;-68
2022/06/28 08:43:09;;;;;;;3.80;3.43;;;19.00;99.90;;;;;;5014023;28;20508;-69
2022/06/28 08:46:12;;;;;;;4.23;3.33;;;19.10;99.90;;;;;;5022484;28;20927;-69
2022/06/28 08:49:04;;;;;;;4.23;2.83;;;19.20;99.90;;;;;;5022272;28;20466;-68
2022/06/28 08:51:56;;;;;;;2.57;2.37;;;19.20;99.90;;;;;;5021772;28;20451;-68
2022/06/28 08:54:50;;;;;;;2.57;2.37;;;19.20;99.90;;;;;;5016220;28;20485;-68
2022/06/28 08:57:41;;;;;;;2.47;1.43;;;19.30;99.90;;;;;;5017306;28;20459;-69
2022/06/28 09:00:31;;;;;;;2.57;1.90;;;19.30;99.90;;;;;;5018331;28;20920;-68
2022/06/28 09:03:21;;;;;;;1.90;1.80;;;19.40;99.90;;;;;;5018807;28;20476;-68
2022/06/28 09:06:10;;;;;;;2.57;1.90;;;19.40;99.90;;;;;;5019153;28;20639;-68
2022/06/28 09:09:01;;;;;;;2.73;2.03;;;19.50;99.90;;;;;;5025745;28;20981;-68
2022/06/28 09:11:56;;;;;;;4.33;1.93;;;19.50;99.90;;;;;;5015875;28;20452;-68
2022/06/28 09:14:50;;;;;;;3.50;1.97;;;19.60;99.90;;;;;;5015701;28;20569;-68
2022/06/28 09:17:41;;;;;;;3.20;1.50;;;19.70;99.90;;;;;;5025095;28;20490;-68
2022/06/28 09:20:40;;;;;;;1.67;1.57;;;19.80;99.90;;;;;;5022113;28;20467;-68
2022/06/28 09:23:32;;;;;;;1.63;1.53;;;19.90;99.90;;;;;;5015532;28;20479;-68
2022/06/28 09:26:22;;;;;;;2.93;1.50;;;19.90;99.90;;;;;;5020635;28;20978;-68
2022/06/28 09:29:14;;;;;;;1.80;1.70;;;19.90;99.90;;;;;;5023417;28;20470;-68
2022/06/28 09:32:05;;;;;;;2.37;1.60;;;19.90;99.90;;;;;;5025173;28;21207;-68
2022/06/28 09:34:57;;;;;;;2.30;1.60;;;19.90;99.90;;;;;;5019536;28;20476;-68
2022/06/28 09:37:51;;;;;;;3.93;1.60;;;20.00;99.90;;;;;;5017113;28;20618;-68
2022/06/28 09:40:40;;;;;;;2.70;1.50;;;20.00;99.90;;;;;;5014942;28;20612;-68
2022/06/28 09:43:35;;;;;;;1.60;1.50;;;20.00;99.90;;;;;;5022287;28;20611;-70
2022/06/28 09:46:26;;;;;;;2.40;1.37;;;20.10;99.90;;;;;;5018102;28;20519;-68
2022/06/28 09:49:18;;;;;;;1.50;1.40;;;20.10;99.90;;;;;;5021677;28;20960;-68
2022/06/28 09:52:09;;;;;;;1.60;1.50;;;20.10;99.90;;;;;;5022485;28;20522;-68
2022/06/28 09:55:00;;;;;;;1.57;1.40;;;20.20;99.90;;;;;;5022563;28;20476;-68
2022/06/28 09:57:52;;;;;;;3.07;1.77;;;20.20;99.90;;;;;;5016790;28;20537;-68
2022/06/28 10:00:43;;;;;;;1.60;1.50;;;20.30;99.90;;;;;;5021810;28;20539;-68
2022/06/28 10:03:39;;;;;;;1.47;1.37;;;20.40;99.90;;;;;;5019004;28;20545;-68
2022/06/28 10:06:35;;;;;;;3.00;1.20;;;20.50;99.90;;;;;;5024392;28;20482;-68
2022/06/28 10:09:24;;;;;;;1.67;1.20;;;20.50;99.90;;;;;;5015821;28;20451;-68
2022/06/28 10:15:24;;;;;;;1.77;1.37;;;20.70;99.90;;;;;;5020507;28;21049;-68
2022/06/28 10:18:16;;;;;;;2.20;1.20;;;20.80;99.90;;;;;;5016427;28;20834;-68
2022/06/28 10:21:08;;;;;;;1.77;1.27;;;20.80;99.90;;;;;;5018839;28;20530;-68
2022/06/28 10:23:58;;;;;;;1.87;1.10;;;20.90;99.90;;;;;;5021988;28;20565;-68
2022/06/28 10:27:17;;;;;;;1.20;1.10;;;20.90;99.90;;;;;;5016078;28;20597;-68
2022/06/28 10:30:36;;;;;;;2.07;1.10;;;21.00;99.90;;;;;;5022897;28;20710;-68
2022/06/28 10:33:41;;;;;;;1.30;1.20;;;21.00;99.90;;;;;;5014986;28;20999;-68
2022/06/28 10:36:32;;;;;;;2.00;1.47;;;21.10;99.90;;;;;;5019985;28;20519;-68
2022/06/28 10:39:31;;;;;;;3.33;1.10;;;21.10;99.90;;;;;;5020444;28;20464;-68
2022/06/28 10:42:26;;;;;;;1.70;1.20;;;21.30;99.90;;;;;;5014656;28;20444;-68
2022/06/28 10:45:14;;;;;;;2.40;1.47;;;21.40;99.90;;;;;;5014472;28;20533;-70
2022/06/28 10:48:10;;;;;;;1.50;1.40;;;21.50;99.90;;;;;;5019323;28;20917;-71
2022/06/28 10:51:04;;;;;;;1.30;1.20;;;21.50;99.90;;;;;;5018768;28;20518;-71
2022/06/28 10:54:01;;;;;;;1.97;1.30;;;21.60;99.90;;;;;;5017803;28;20482;-70
2022/06/28 10:56:50;;;;;;;2.03;1.43;;;21.70;99.90;;;;;;5023099;28;20468;-71
2022/06/28 10:59:39;;;;;;;1.00;1.00;;;21.70;99.90;;;;;;5022204;28;20452;-71
2022/06/28 11:02:47;;;;;;;1.67;1.30;;;21.80;99.90;;;;;;5022452;28;20528;-68
2022/06/28 11:05:50;;;;;;;1.00;1.00;;;21.80;99.90;;;;;;5021135;28;20502;-72
2022/06/28 11:08:49;;;;;;;1.40;1.30;;;21.80;99.90;;;;;;5019452;28;20915;-67
2022/06/28 11:12:13;;;;;;;1.60;1.50;;;21.90;99.90;;;;;;5018330;28;20525;-68
2022/06/28 11:15:09;;;;;;;1.50;1.20;;;22.00;99.90;;;;;;5019973;28;20495;-68
2022/06/28 11:17:59;;;;;;;1.80;1.30;;;22.00;99.90;;;;;;5016005;28;20463;-70
2022/06/28 11:20:52;;;;;;;2.30;1.30;;;22.00;99.90;;;;;;5017575;28;20451;-68
2022/06/28 11:23:48;;;;;;;1.47;1.37;;;22.00;99.90;;;;;;5026377;28;21177;-68
2022/06/28 11:29:54;;;;;;;2.30;1.23;;;22.10;99.90;;;;;;5011556;28;20551;-68
2022/06/28 11:32:50;;;;;;;2.03;1.30;;;22.20;99.90;;;;;;5014810;28;20546;-69
2022/06/28 11:35:41;;;;;;;2.10;1.20;;;22.40;99.90;;;;;;5012513;28;20561;-68
2022/06/28 11:38:35;;;;;;;2.50;1.50;;;22.50;99.90;;;;;;5017049;28;20444;-68
2022/06/28 11:41:36;;;;;;;1.30;1.20;;;22.70;99.90;;;;;;5018127;28;20547;-68
2022/06/28 11:44:29;;;;;;;2.10;1.30;;;22.80;99.90;;;;;;5014898;28;20493;-68
2022/06/28 11:47:25;;;;;;;1.33;1.20;;;22.80;99.90;;;;;;5012691;28;20448;-69
2022/06/28 11:50:18;;;;;;;2.10;1.70;;;22.80;99.90;;;;;;5018514;28;20545;-68
2022/06/28 11:53:07;;;;;;;1.20;1.10;;;22.80;99.90;;;;;;5011371;28;20452;-68
2022/06/28 11:55:57;;;;;;;1.50;1.40;;;22.90;99.90;;;;;;5007966;28;20578;-68
2022/06/28 11:58:47;;;;;;;2.10;1.57;;;23.00;99.90;;;;;;5009930;28;22342;-69
2022/06/28 12:01:39;;;;;;;2.30;1.37;;;23.10;99.90;;;;;;5008286;28;20558;-69
2022/06/28 12:04:31;;;;;;;2.60;1.23;;;23.20;99.90;;;;;;5012569;28;20625;-69
2022/06/28 12:07:35;;;;;;;1.57;1.37;;;23.30;99.90;;;;;;5008073;28;20546;-68
2022/06/28 12:10:28;;;;;;;1.77;1.30;;;23.40;99.90;;;;;;5012932;28;20472;-68
2022/06/28 12:13:22;;;;;;;2.10;1.40;;;23.60;99.90;;;;;;5004963;28;21161;-69
2022/06/28 12:16:13;;;;;;;1.27;1.17;;;23.70;99.90;;;;;;5015380;28;20487;-70
2022/06/28 12:19:04;;;;;;;4.10;1.70;;;23.80;99.90;;;;;;5012814;28;20463;-69
2022/06/28 12:22:01;;;;;;;0.93;0.93;;;23.80;99.90;;;;;;5009084;28;20452;-69
2022/06/28 12:24:54;;;;;;;1.47;1.13;;;23.80;99.90;;;;;;5013518;28;20567;-69
2022/06/28 12:27:47;;;;;;;1.20;1.10;;;23.80;99.90;;;;;;5011066;28;20463;-69
2022/06/28 12:30:45;;;;;;;1.60;1.27;;;23.80;99.90;;;;;;5013617;28;20681;-69
2022/06/28 12:33:39;;;;;;;2.20;1.20;;;23.80;99.90;;;;;;5012560;28;20460;-69
2022/06/28 12:36:30;;;;;;;1.50;1.10;;;23.70;99.90;;;;;;5013135;28;20483;-68
2022/06/28 12:39:23;;;;;;;2.63;1.70;;;23.50;99.90;;;;;;5021405;28;20447;-68
2022/06/28 12:42:12;;;;;;;2.47;1.50;;;23.50;99.90;;;;;;5016517;28;21126;-68
2022/06/28 12:45:01;;;;;;;1.50;1.40;;;23.50;99.90;;;;;;5009334;28;20625;-68
2022/06/28 12:47:53;;;;;;;2.10;1.60;;;23.70;99.90;;;;;;5009537;28;20554;-67
2022/06/28 12:50:41;;;;;;;1.97;1.60;;;23.90;99.90;;;;;;5013257;28;20952;-68
2022/06/28 12:53:30;;;;;;;2.13;1.63;;;24.00;99.90;;;;;;5021145;28;20568;-68
2022/06/28 12:56:20;;;;;;;1.63;1.50;;;24.00;99.90;;;;;;5020309;28;20586;-68
2022/06/28 12:59:15;;;;;;;2.70;1.50;;;24.10;99.90;;;;;;5023326;28;20455;-69
2022/06/28 13:02:09;;;;;;;1.70;1.60;;;24.20;99.90;;;;;;5019675;28;20500;-69
2022/06/28 13:04:58;;;;;;;1.63;1.50;;;24.30;99.90;;;;;;5018135;28;20505;-69
2022/06/28 13:07:50;;;;;;;2.83;1.83;;;24.30;99.90;;;;;;5015288;28;20451;-69
2022/06/28 13:10:38;;;;;;;2.10;2.00;;;24.20;99.90;;;;;;5014963;28;20475;-67
2022/06/28 13:13:30;;;;;;;1.80;1.70;;;24.30;99.90;;;;;;5019638;28;20694;-69
2022/06/28 13:16:26;;;;;;;1.90;1.80;;;24.50;99.90;;;;;;5017648;28;20525;-69
2022/06/28 13:19:20;;;;;;;2.53;2.23;;;24.60;99.90;;;;;;5017997;28;20451;-70
2022/06/28 13:22:11;;;;;;;3.60;2.30;;;24.60;99.90;;;;;;5016816;28;20462;-69
2022/06/28 13:24:59;;;;;;;2.33;2.20;;;24.50;99.90;;;;;;5012861;28;20598;-70
2022/06/28 13:27:55;;;;;;;2.17;2.00;;;24.40;99.90;;;;;;5018112;28;20473;-69
2022/06/28 13:30:43;;;;;;;2.40;2.17;;;24.30;99.90;;;;;;5019321;28;20558;-69
2022/06/28 13:33:36;;;;;;;2.30;2.10;;;24.10;99.90;;;;;;5017322;28;20550;-68
2022/06/28 13:36:24;;;;;;;2.40;2.20;;;24.10;99.90;;;;;;5020081;28;20525;-68
2022/06/28 13:39:14;;;;;;;2.40;2.27;;;24.10;99.90;;;;;;5019264;28;20463;-69
2022/06/28 13:42:05;;;;;;;3.33;2.07;;;24.10;99.90;;;;;;5017399;28;20546;-69
2022/06/28 13:44:53;;;;;;;2.40;2.20;;;24.10;99.90;;;;;;5017969;28;20587;-69
2022/06/28 13:47:42;;;;;;;1.80;1.70;;;24.10;99.90;;;;;;5021921;28;20518;-70
2022/06/28 13:50:36;;;;;;;2.90;1.93;;;24.20;99.90;;;;;;5023055;28;20547;-70
2022/06/28 13:53:25;;;;;;;2.47;2.37;;;24.30;99.90;;;;;;5022249;28;20460;-68
2022/06/28 13:56:15;;;;;;;2.80;2.60;;;24.50;99.90;;;;;;5025424;28;20528;-69
2022/06/28 13:59:03;;;;;;;2.20;2.07;;;24.70;99.90;;;;;;5015820;28;20447;-69
2022/06/28 14:01:51;;;;;;;2.43;2.33;;;24.90;99.90;;;;;;5017080;28;21101;-68
2022/06/28 14:04:46;;;;;;;2.80;2.60;;;25.10;99.90;;;;;;5016837;28;20483;-70
2022/06/28 14:07:39;;;;;;;2.47;2.37;;;25.10;99.90;;;;;;5016240;28;20498;-69
2022/06/28 14:10:30;;;;;;;2.57;2.37;;;25.10;99.90;;;;;;5018967;28;20448;-69
2022/06/28 14:13:18;;;;;;;2.40;2.17;;;25.00;99.90;;;;;;5016965;28;20495;-69
2022/06/28 14:16:11;;;;;;;2.60;2.40;;;24.90;99.90;;;;;;5021627;28;20574;-69
2022/06/28 14:18:59;;;;;;;2.80;2.60;;;24.90;99.90;;;;;;5013297;28;20455;-69
2022/06/28 14:21:50;;;;;;;3.30;2.80;;;24.90;99.90;;;;;;5020228;28;20444;-69
2022/06/28 14:24:41;;;;;;;3.20;2.90;;;24.90;99.90;;;;;;5022762;28;20943;-70
2022/06/28 14:27:31;;;;;;;3.60;2.70;;;24.90;99.90;;;;;;5020295;28;21404;-70
2022/06/28 14:30:39;;;;;;;2.50;2.30;;;25.00;99.90;;;;;;5017136;28;20513;-70
2022/06/28 14:33:29;;;;;;;2.73;2.50;;;24.90;99.90;;;;;;5014472;28;20515;-70
2022/06/28 14:36:31;;;;;;;3.53;2.80;;;25.00;99.90;;;;;;5011923;28;20664;-70
2022/06/28 14:39:22;;;;;;;3.00;2.80;;;25.10;99.90;;;;;;5019580;28;20487;-69
2022/06/28 14:42:15;;;;;;;2.70;2.50;;;25.30;99.90;;;;;;5015377;28;21174;-69
2022/06/28 14:45:10;;;;;;;3.03;2.73;;;25.50;99.90;;;;;;5019996;28;20483;-69
2022/06/28 14:48:04;;;;;;;2.40;2.30;;;25.60;99.90;;;;;;5016427;28;20494;-69
2022/06/28 14:50:55;;;;;;;3.93;3.57;;;25.80;99.90;;;;;;5018038;28;20455;-69
2022/06/28 14:53:44;;;;;;;3.10;2.80;;;25.90;99.90;;;;;;5021994;28;20459;-69
2022/06/28 14:56:32;;;;;;;3.00;2.80;;;25.80;99.90;;;;;;5016145;28;20941;-69
2022/06/28 14:59:25;;;;;;;3.07;2.83;;;25.90;99.90;;;;;;5013019;28;20463;-68
2022/06/28 15:02:13;;;;;;;2.40;2.30;;;26.00;99.90;;;;;;5014128;28;20467;-68
2022/06/28 15:05:07;;;;;;;2.90;2.70;;;26.10;99.90;;;;;;5013331;28;20479;-68
2022/06/28 15:07:58;;;;;;;2.50;2.37;;;26.30;99.90;;;;;;5018203;28;20589;-69
2022/06/28 15:10:48;;;;;;;2.70;2.60;;;26.40;99.90;;;;;;5021093;28;20443;-69
2022/06/28 15:13:36;;;;;;;2.57;2.37;;;26.50;99.90;;;;;;5016434;28;20466;-69
2022/06/28 15:16:38;;;;;;;2.80;2.60;;;26.70;99.90;;;;;;5019894;28;20527;-68
2022/06/28 15:19:36;;;;;;;3.03;2.73;;;26.80;99.90;;;;;;5014743;28;20456;-68
2022/06/28 15:31:50;;;;;;;2.87;2.70;;;27.00;99.90;;;;;;5019224;28;20616;-68
2022/06/28 15:34:40;;;;;;;2.87;2.67;;;27.00;99.90;;;;;;5022228;28;20479;-68
2022/06/28 15:37:28;;;;;;;5.00;2.83;;;26.90;99.90;;;;;;5019612;28;20555;-70
2022/06/28 15:40:21;;;;;;;3.63;2.53;;;26.90;99.90;;;;;;5019741;28;21000;-67
2022/06/28 15:43:12;;;;;;;3.20;2.90;;;27.00;99.90;;;;;;5019288;28;20471;-67
2022/06/28 15:46:01;;;;;;;4.07;2.87;;;27.00;99.90;;;;;;5024153;28;20509;-67
2022/06/28 15:48:58;;;;;;;3.60;2.60;;;27.10;99.90;;;;;;5011490;28;20471;-66
2022/06/28 15:51:50;;;;;;;2.40;2.30;;;27.10;99.90;;;;;;5015545;28;20523;-66
2022/06/28 15:54:44;;;;;;;2.63;2.43;;;27.10;99.90;;;;;;5009248;28;20484;-68
2022/06/28 15:57:32;;;;;;;2.60;2.40;;;27.20;99.90;;;;;;5025187;28;21050;-69
2022/06/28 16:00:23;;;;;;;2.40;2.20;;;27.20;99.90;;;;;;5019987;28;20444;-68
2022/06/28 16:03:11;;;;;;;2.70;2.40;;;27.20;99.90;;;;;;5017873;28;21223;-68
2022/06/28 16:06:01;;;;;;;2.33;2.23;;;27.20;99.90;;;;;;5011775;28;21403;-68
2022/06/28 16:08:49;;;;;;;2.40;2.20;;;27.30;99.90;;;;;;5008431;28;20825;-66
2022/06/28 16:11:42;;;;;;;2.47;2.30;;;27.30;99.90;;;;;;5010418;28;20979;-67
2022/06/28 16:14:35;;;;;;;2.43;2.30;;;27.40;99.90;;;;;;5005401;28;21278;-68
2022/06/28 16:17:25;;;;;;;2.80;2.60;;;27.50;99.90;;;;;;5015468;28;20832;-68